sensor_id;sensor_type;location;lat;lon;timestamp;P1;durP1;ratioP1;P2;durP2;ratioP2
3329;SDS011;1677;49.576;10.990;2022-12-18T00:01:02;40.85;;;23.92;;
3329;SDS011;1677;49.576;10.990;2022-12-18T00:03:32;33.90;;;25.45;;
3329;SDS011;1677;49.576;10.990;2022-12-18T00:05:58;37.63;;;21.02;;
3329;SDS011;1677;49.576;10.990;2022-12-18T00:08:24;32.57;;;23.03;;
3329;SDS011;1677;49.576;10.990;2022-12-18T00:10:49;46.10;;;21.27;;
3329;SDS011;1677;49.576;10.990;2022-12-18T00:13:15;39.80;;;21.70;;
3329;SDS011;1677;49.576;10.990;2022-12-18T00:15:41;37.87;;;24.77;;
3329;SDS011;1677;49.576;10.990;2022-12-18T00:18:06;34.97;;;22.03;;
3329;SDS011;1677;49.576;10.990;2022-12-18T00:20:35;35.70;;;22.80;;
3329;SDS011;1677;49.576;10.990;2022-12-18T00:23:02;36.92;;;21.17;;
3329;SDS011;1677;49.576;10.990;2022-12-18T00:25:27;48.23;;;24.27;;
3329;SDS011;1677;49.576;10.990;2022-12-18T00:27:53;36.80;;;21.17;;
3329;SDS011;1677;49.576;10.990;2022-12-18T00:30:18;30.93;;;20.57;;
3329;SDS011;1677;49.576;10.990;2022-12-18T00:32:44;32.90;;;21.80;;
3329;SDS011;1677;49.576;10.990;2022-12-18T00:35:09;44.40;;;26.93;;
3329;SDS011;1677;49.576;10.990;2022-12-18T00:37:35;24.47;;;21.70;;
3329;SDS011;1677;49.576;10.990;2022-12-18T00:40:01;36.07;;;24.80;;
3329;SDS011;1677;49.576;10.990;2022-12-18T00:42:27;36.03;;;25.40;;
3329;SDS011;1677;49.576;10.990;2022-12-18T00:45:11;34.22;;;24.75;;
3329;SDS011;1677;49.576;10.990;2022-12-18T00:47:36;31.03;;;22.80;;
3329;SDS011;1677;49.576;10.990;2022-12-18T00:50:02;37.87;;;24.93;;
3329;SDS011;1677;49.576;10.990;2022-12-18T00:52:28;22.33;;;19.80;;
3329;SDS011;1677;49.576;10.990;2022-12-18T00:54:53;28.80;;;22.33;;
3329;SDS011;1677;49.576;10.990;2022-12-18T00:57:19;42.43;;;23.30;;
3329;SDS011;1677;49.576;10.990;2022-12-18T00:59:44;32.43;;;24.20;;
3329;SDS011;1677;49.576;10.990;2022-12-18T01:02:10;43.93;;;25.40;;
3329;SDS011;1677;49.576;10.990;2022-12-18T01:04:38;35.17;;;22.85;;
3329;SDS011;1677;49.576;10.990;2022-12-18T01:07:04;32.37;;;22.53;;
3329;SDS011;1677;49.576;10.990;2022-12-18T01:09:29;42.73;;;22.40;;
3329;SDS011;1677;49.576;10.990;2022-12-18T01:11:55;42.93;;;23.03;;
3329;SDS011;1677;49.576;10.990;2022-12-18T01:14:20;44.07;;;25.83;;
3329;SDS011;1677;49.576;10.990;2022-12-18T01:16:46;37.47;;;25.97;;
3329;SDS011;1677;49.576;10.990;2022-12-18T01:19:12;38.67;;;28.30;;
3329;SDS011;1677;49.576;10.990;2022-12-18T01:21:37;39.73;;;27.23;;
3329;SDS011;1677;49.576;10.990;2022-12-18T01:24:03;37.23;;;23.10;;
3329;SDS011;1677;49.576;10.990;2022-12-18T01:26:29;29.52;;;24.45;;
3329;SDS011;1677;49.576;10.990;2022-12-18T01:28:55;38.60;;;25.97;;
3329;SDS011;1677;49.576;10.990;2022-12-18T01:31:25;35.55;;;21.70;;
3329;SDS011;1677;49.576;10.990;2022-12-18T01:33:53;41.10;;;23.05;;
3329;SDS011;1677;49.576;10.990;2022-12-18T01:36:23;30.10;;;21.67;;
3329;SDS011;1677;49.576;10.990;2022-12-18T01:38:54;31.45;;;20.00;;
3329;SDS011;1677;49.576;10.990;2022-12-18T01:41:22;35.95;;;25.23;;
3329;SDS011;1677;49.576;10.990;2022-12-18T01:43:56;33.35;;;17.70;;
3329;SDS011;1677;49.576;10.990;2022-12-18T01:46:23;26.60;;;20.88;;
3329;SDS011;1677;49.576;10.990;2022-12-18T01:48:51;35.58;;;23.60;;
3329;SDS011;1677;49.576;10.990;2022-12-18T01:51:22;28.13;;;20.17;;
3329;SDS011;1677;49.576;10.990;2022-12-18T01:53:48;29.10;;;21.03;;
3329;SDS011;1677;49.576;10.990;2022-12-18T01:56:15;30.55;;;21.10;;
3329;SDS011;1677;49.576;10.990;2022-12-18T02:01:30;29.85;;;18.45;;
3329;SDS011;1677;49.576;10.990;2022-12-18T02:04:13;29.95;;;21.27;;
3329;SDS011;1677;49.576;10.990;2022-12-18T02:06:50;32.35;;;22.15;;
3329;SDS011;1677;49.576;10.990;2022-12-18T02:09:34;29.25;;;18.35;;
3329;SDS011;1677;49.576;10.990;2022-12-18T02:12:21;32.00;;;18.83;;
3329;SDS011;1677;49.576;10.990;2022-12-18T02:14:52;33.15;;;21.73;;
3329;SDS011;1677;49.576;10.990;2022-12-18T02:17:34;26.15;;;18.58;;
3329;SDS011;1677;49.576;10.990;2022-12-18T02:20:35;37.72;;;16.73;;
3329;SDS011;1677;49.576;10.990;2022-12-18T02:28:46;25.58;;;15.80;;
3329;SDS011;1677;49.576;10.990;2022-12-18T02:31:16;16.20;;;12.95;;
3329;SDS011;1677;49.576;10.990;2022-12-18T02:33:46;35.40;;;17.98;;
3329;SDS011;1677;49.576;10.990;2022-12-18T02:36:14;24.35;;;13.38;;
3329;SDS011;1677;49.576;10.990;2022-12-18T02:38:42;18.92;;;16.90;;
3329;SDS011;1677;49.576;10.990;2022-12-18T02:41:10;13.95;;;12.55;;
3329;SDS011;1677;49.576;10.990;2022-12-18T02:43:38;26.98;;;17.65;;
3329;SDS011;1677;49.576;10.990;2022-12-18T02:48:55;32.33;;;19.98;;
3329;SDS011;1677;49.576;10.990;2022-12-18T02:51:32;24.92;;;15.18;;
3329;SDS011;1677;49.576;10.990;2022-12-18T02:57:31;24.42;;;12.05;;
3329;SDS011;1677;49.576;10.990;2022-12-18T03:00:04;17.52;;;13.52;;
3329;SDS011;1677;49.576;10.990;2022-12-18T03:02:48;28.27;;;16.08;;
3329;SDS011;1677;49.576;10.990;2022-12-18T03:08:00;38.83;;;21.40;;
3329;SDS011;1677;49.576;10.990;2022-12-18T03:10:32;36.65;;;15.27;;
3329;SDS011;1677;49.576;10.990;2022-12-18T03:13:12;36.88;;;20.20;;
3329;SDS011;1677;49.576;10.990;2022-12-18T03:15:51;32.13;;;17.17;;
3329;SDS011;1677;49.576;10.990;2022-12-18T03:18:23;24.13;;;19.58;;
3329;SDS011;1677;49.576;10.990;2022-12-18T03:21:02;22.55;;;13.57;;
3329;SDS011;1677;49.576;10.990;2022-12-18T03:23:32;21.77;;;14.73;;
3329;SDS011;1677;49.576;10.990;2022-12-18T03:26:03;34.55;;;16.10;;
3329;SDS011;1677;49.576;10.990;2022-12-18T03:28:33;23.35;;;12.63;;
3329;SDS011;1677;49.576;10.990;2022-12-18T03:31:03;26.42;;;14.68;;
3329;SDS011;1677;49.576;10.990;2022-12-18T03:33:37;21.85;;;15.20;;
3329;SDS011;1677;49.576;10.990;2022-12-18T03:36:10;31.88;;;17.80;;
3329;SDS011;1677;49.576;10.990;2022-12-18T03:38:36;31.47;;;16.17;;
3329;SDS011;1677;49.576;10.990;2022-12-18T03:41:04;24.60;;;13.40;;
3329;SDS011;1677;49.576;10.990;2022-12-18T03:47:24;20.33;;;12.57;;
3329;SDS011;1677;49.576;10.990;2022-12-18T03:55:14;15.32;;;12.20;;
3329;SDS011;1677;49.576;10.990;2022-12-18T03:57:41;23.40;;;13.93;;
3329;SDS011;1677;49.576;10.990;2022-12-18T04:00:10;20.98;;;12.00;;
3329;SDS011;1677;49.576;10.990;2022-12-18T04:02:39;22.60;;;11.63;;
3329;SDS011;1677;49.576;10.990;2022-12-18T04:05:09;16.40;;;11.70;;
3329;SDS011;1677;49.576;10.990;2022-12-18T04:07:36;17.27;;;10.68;;
3329;SDS011;1677;49.576;10.990;2022-12-18T04:10:04;29.17;;;11.98;;
3329;SDS011;1677;49.576;10.990;2022-12-18T04:12:32;24.55;;;16.25;;
3329;SDS011;1677;49.576;10.990;2022-12-18T04:14:57;23.00;;;11.77;;
3329;SDS011;1677;49.576;10.990;2022-12-18T04:17:23;17.33;;;8.90;;
3329;SDS011;1677;49.576;10.990;2022-12-18T04:19:48;19.57;;;13.93;;
3329;SDS011;1677;49.576;10.990;2022-12-18T04:22:14;22.87;;;11.17;;
3329;SDS011;1677;49.576;10.990;2022-12-18T04:24:40;17.20;;;12.07;;
3329;SDS011;1677;49.576;10.990;2022-12-18T04:27:05;21.53;;;11.20;;
3329;SDS011;1677;49.576;10.990;2022-12-18T04:29:31;21.37;;;12.27;;
3329;SDS011;1677;49.576;10.990;2022-12-18T04:31:57;23.10;;;13.37;;
3329;SDS011;1677;49.576;10.990;2022-12-18T04:34:22;20.73;;;13.13;;
3329;SDS011;1677;49.576;10.990;2022-12-18T04:36:48;22.43;;;11.30;;
3329;SDS011;1677;49.576;10.990;2022-12-18T04:39:13;16.57;;;10.20;;
3329;SDS011;1677;49.576;10.990;2022-12-18T04:41:42;23.67;;;12.70;;
3329;SDS011;1677;49.576;10.990;2022-12-18T04:44:07;15.33;;;13.47;;
3329;SDS011;1677;49.576;10.990;2022-12-18T04:46:33;19.70;;;12.30;;
3329;SDS011;1677;49.576;10.990;2022-12-18T04:48:59;19.63;;;10.60;;
3329;SDS011;1677;49.576;10.990;2022-12-18T04:51:24;23.47;;;11.20;;
3329;SDS011;1677;49.576;10.990;2022-12-18T04:53:50;26.03;;;13.57;;
3329;SDS011;1677;49.576;10.990;2022-12-18T04:56:15;12.03;;;9.80;;
3329;SDS011;1677;49.576;10.990;2022-12-18T04:58:42;28.30;;;16.17;;
3329;SDS011;1677;49.576;10.990;2022-12-18T05:01:08;21.77;;;13.73;;
3329;SDS011;1677;49.576;10.990;2022-12-18T05:03:35;21.60;;;12.23;;
3329;SDS011;1677;49.576;10.990;2022-12-18T05:06:02;15.32;;;9.10;;
3329;SDS011;1677;49.576;10.990;2022-12-18T05:08:28;16.15;;;12.20;;
3329;SDS011;1677;49.576;10.990;2022-12-18T05:11:00;25.60;;;12.53;;
3329;SDS011;1677;49.576;10.990;2022-12-18T05:13:34;18.27;;;13.60;;
3329;SDS011;1677;49.576;10.990;2022-12-18T05:16:00;20.90;;;11.65;;
3329;SDS011;1677;49.576;10.990;2022-12-18T05:18:27;20.65;;;11.30;;
3329;SDS011;1677;49.576;10.990;2022-12-18T05:20:53;26.25;;;14.57;;
3329;SDS011;1677;49.576;10.990;2022-12-18T05:23:19;16.83;;;10.48;;
3329;SDS011;1677;49.576;10.990;2022-12-18T05:25:55;16.38;;;11.40;;
3329;SDS011;1677;49.576;10.990;2022-12-18T05:28:23;18.90;;;11.80;;
3329;SDS011;1677;49.576;10.990;2022-12-18T05:30:50;22.92;;;12.32;;
3329;SDS011;1677;49.576;10.990;2022-12-18T05:33:17;25.55;;;15.23;;
3329;SDS011;1677;49.576;10.990;2022-12-18T05:35:44;22.35;;;12.55;;
3329;SDS011;1677;49.576;10.990;2022-12-18T05:38:14;28.42;;;15.45;;
3329;SDS011;1677;49.576;10.990;2022-12-18T05:40:41;21.43;;;12.10;;
3329;SDS011;1677;49.576;10.990;2022-12-18T05:43:08;24.15;;;13.35;;
3329;SDS011;1677;49.576;10.990;2022-12-18T05:45:36;20.55;;;11.32;;
3329;SDS011;1677;49.576;10.990;2022-12-18T05:48:03;24.75;;;12.63;;
3329;SDS011;1677;49.576;10.990;2022-12-18T05:50:29;30.20;;;15.02;;
3329;SDS011;1677;49.576;10.990;2022-12-18T05:52:54;21.30;;;11.30;;
3329;SDS011;1677;49.576;10.990;2022-12-18T05:55:20;16.63;;;13.10;;
3329;SDS011;1677;49.576;10.990;2022-12-18T05:57:45;20.33;;;12.73;;
3329;SDS011;1677;49.576;10.990;2022-12-18T06:00:11;21.40;;;11.63;;
3329;SDS011;1677;49.576;10.990;2022-12-18T06:02:37;29.25;;;13.50;;
3329;SDS011;1677;49.576;10.990;2022-12-18T06:05:03;22.73;;;12.30;;
3329;SDS011;1677;49.576;10.990;2022-12-18T06:07:29;20.52;;;11.95;;
3329;SDS011;1677;49.576;10.990;2022-12-18T06:09:54;17.37;;;10.77;;
3329;SDS011;1677;49.576;10.990;2022-12-18T06:12:20;24.60;;;10.87;;
3329;SDS011;1677;49.576;10.990;2022-12-18T06:14:46;22.07;;;12.60;;
3329;SDS011;1677;49.576;10.990;2022-12-18T06:17:11;20.77;;;11.50;;
3329;SDS011;1677;49.576;10.990;2022-12-18T06:19:37;15.10;;;10.60;;
3329;SDS011;1677;49.576;10.990;2022-12-18T06:22:02;19.30;;;13.87;;
3329;SDS011;1677;49.576;10.990;2022-12-18T06:24:28;21.00;;;13.57;;
3329;SDS011;1677;49.576;10.990;2022-12-18T06:26:54;20.02;;;12.45;;
3329;SDS011;1677;49.576;10.990;2022-12-18T06:29:20;24.97;;;14.43;;
3329;SDS011;1677;49.576;10.990;2022-12-18T06:31:45;19.23;;;11.10;;
3329;SDS011;1677;49.576;10.990;2022-12-18T06:34:11;16.93;;;12.13;;
3329;SDS011;1677;49.576;10.990;2022-12-18T06:36:36;25.43;;;11.27;;
3329;SDS011;1677;49.576;10.990;2022-12-18T06:39:02;26.70;;;14.37;;
3329;SDS011;1677;49.576;10.990;2022-12-18T06:41:27;25.47;;;14.50;;
3329;SDS011;1677;49.576;10.990;2022-12-18T06:43:53;18.53;;;11.50;;
3329;SDS011;1677;49.576;10.990;2022-12-18T06:46:19;16.20;;;10.57;;
3329;SDS011;1677;49.576;10.990;2022-12-18T06:48:48;23.10;;;13.27;;
3329;SDS011;1677;49.576;10.990;2022-12-18T06:51:15;31.40;;;15.63;;
3329;SDS011;1677;49.576;10.990;2022-12-18T06:53:45;24.42;;;12.18;;
3329;SDS011;1677;49.576;10.990;2022-12-18T06:56:11;22.30;;;10.70;;
3329;SDS011;1677;49.576;10.990;2022-12-18T06:58:37;21.80;;;10.27;;
3329;SDS011;1677;49.576;10.990;2022-12-18T07:01:04;22.08;;;12.18;;
3329;SDS011;1677;49.576;10.990;2022-12-18T07:03:31;15.38;;;10.20;;
3329;SDS011;1677;49.576;10.990;2022-12-18T07:05:57;26.27;;;16.43;;
3329;SDS011;1677;49.576;10.990;2022-12-18T07:08:22;20.03;;;12.00;;
3329;SDS011;1677;49.576;10.990;2022-12-18T07:10:48;18.13;;;9.90;;
3329;SDS011;1677;49.576;10.990;2022-12-18T07:13:17;22.15;;;11.20;;
3329;SDS011;1677;49.576;10.990;2022-12-18T07:15:43;24.60;;;12.23;;
3329;SDS011;1677;49.576;10.990;2022-12-18T07:18:09;19.10;;;10.43;;
3329;SDS011;1677;49.576;10.990;2022-12-18T07:20:35;24.85;;;11.52;;
3329;SDS011;1677;49.576;10.990;2022-12-18T07:23:04;19.90;;;11.50;;
3329;SDS011;1677;49.576;10.990;2022-12-18T07:25:30;20.88;;;11.10;;
3329;SDS011;1677;49.576;10.990;2022-12-18T07:28:02;24.27;;;13.02;;
3329;SDS011;1677;49.576;10.990;2022-12-18T07:30:28;20.48;;;12.05;;
3329;SDS011;1677;49.576;10.990;2022-12-18T07:32:54;22.87;;;11.33;;
3329;SDS011;1677;49.576;10.990;2022-12-18T07:35:20;22.47;;;10.90;;
3329;SDS011;1677;49.576;10.990;2022-12-18T07:37:45;17.60;;;9.10;;
3329;SDS011;1677;49.576;10.990;2022-12-18T07:40:11;23.57;;;11.67;;
3329;SDS011;1677;49.576;10.990;2022-12-18T07:42:37;24.50;;;12.68;;
3329;SDS011;1677;49.576;10.990;2022-12-18T07:45:03;25.13;;;13.17;;
3329;SDS011;1677;49.576;10.990;2022-12-18T07:47:29;26.42;;;10.13;;
3329;SDS011;1677;49.576;10.990;2022-12-18T07:49:58;17.15;;;10.45;;
3329;SDS011;1677;49.576;10.990;2022-12-18T07:52:23;14.13;;;10.67;;
3329;SDS011;1677;49.576;10.990;2022-12-18T07:54:49;17.97;;;10.27;;
3329;SDS011;1677;49.576;10.990;2022-12-18T07:57:15;20.90;;;10.30;;
3329;SDS011;1677;49.576;10.990;2022-12-18T07:59:41;25.35;;;12.75;;
3329;SDS011;1677;49.576;10.990;2022-12-18T08:02:06;19.37;;;9.70;;
3329;SDS011;1677;49.576;10.990;2022-12-18T08:04:32;14.93;;;9.90;;
3329;SDS011;1677;49.576;10.990;2022-12-18T08:07:00;21.52;;;10.43;;
3329;SDS011;1677;49.576;10.990;2022-12-18T08:09:26;18.87;;;11.53;;
3329;SDS011;1677;49.576;10.990;2022-12-18T08:11:51;19.77;;;12.47;;
3329;SDS011;1677;49.576;10.990;2022-12-18T08:14:17;19.60;;;10.50;;
3329;SDS011;1677;49.576;10.990;2022-12-18T08:16:42;22.20;;;11.40;;
3329;SDS011;1677;49.576;10.990;2022-12-18T08:19:08;17.73;;;10.07;;
3329;SDS011;1677;49.576;10.990;2022-12-18T08:21:36;33.35;;;14.20;;
3329;SDS011;1677;49.576;10.990;2022-12-18T08:24:05;23.00;;;11.15;;
3329;SDS011;1677;49.576;10.990;2022-12-18T08:26:31;25.60;;;10.63;;
3329;SDS011;1677;49.576;10.990;2022-12-18T08:28:57;20.03;;;12.60;;
3329;SDS011;1677;49.576;10.990;2022-12-18T08:31:25;22.08;;;11.27;;
3329;SDS011;1677;49.576;10.990;2022-12-18T08:33:52;22.85;;;9.63;;
3329;SDS011;1677;49.576;10.990;2022-12-18T08:36:18;18.73;;;9.30;;
3329;SDS011;1677;49.576;10.990;2022-12-18T08:38:44;17.80;;;10.75;;
3329;SDS011;1677;49.576;10.990;2022-12-18T08:41:11;19.65;;;9.98;;
3329;SDS011;1677;49.576;10.990;2022-12-18T08:43:38;25.15;;;11.45;;
3329;SDS011;1677;49.576;10.990;2022-12-18T08:46:23;18.13;;;9.32;;
3329;SDS011;1677;49.576;10.990;2022-12-18T08:48:50;21.80;;;11.30;;
3329;SDS011;1677;49.576;10.990;2022-12-18T08:51:16;21.98;;;10.80;;
3329;SDS011;1677;49.576;10.990;2022-12-18T08:53:42;19.57;;;10.43;;
3329;SDS011;1677;49.576;10.990;2022-12-18T08:56:09;20.25;;;11.60;;
3329;SDS011;1677;49.576;10.990;2022-12-18T08:58:35;22.00;;;11.10;;
3329;SDS011;1677;49.576;10.990;2022-12-18T09:01:01;22.80;;;12.00;;
3329;SDS011;1677;49.576;10.990;2022-12-18T09:03:31;19.55;;;10.60;;
3329;SDS011;1677;49.576;10.990;2022-12-18T09:05:57;23.00;;;10.98;;
3329;SDS011;1677;49.576;10.990;2022-12-18T09:08:24;17.27;;;10.52;;
3329;SDS011;1677;49.576;10.990;2022-12-18T09:10:50;20.23;;;10.53;;
3329;SDS011;1677;49.576;10.990;2022-12-18T09:13:16;20.50;;;10.30;;
3329;SDS011;1677;49.576;10.990;2022-12-18T09:15:49;24.50;;;12.40;;
3329;SDS011;1677;49.576;10.990;2022-12-18T09:18:17;28.65;;;10.90;;
3329;SDS011;1677;49.576;10.990;2022-12-18T09:20:45;14.95;;;10.55;;
3329;SDS011;1677;49.576;10.990;2022-12-18T09:23:11;21.63;;;11.32;;
3329;SDS011;1677;49.576;10.990;2022-12-18T09:25:38;18.33;;;9.95;;
3329;SDS011;1677;49.576;10.990;2022-12-18T09:28:05;30.08;;;11.88;;
3329;SDS011;1677;49.576;10.990;2022-12-18T09:30:37;25.05;;;11.80;;
3329;SDS011;1677;49.576;10.990;2022-12-18T09:33:06;20.98;;;10.63;;
3329;SDS011;1677;49.576;10.990;2022-12-18T09:35:35;21.60;;;10.40;;
3329;SDS011;1677;49.576;10.990;2022-12-18T09:38:04;23.00;;;11.75;;
3329;SDS011;1677;49.576;10.990;2022-12-18T09:40:41;22.05;;;10.50;;
3329;SDS011;1677;49.576;10.990;2022-12-18T09:43:18;21.85;;;9.20;;
3329;SDS011;1677;49.576;10.990;2022-12-18T09:45:55;24.38;;;12.45;;
3329;SDS011;1677;49.576;10.990;2022-12-18T09:48:28;19.40;;;9.90;;
3329;SDS011;1677;49.576;10.990;2022-12-18T09:51:19;14.32;;;8.23;;
3329;SDS011;1677;49.576;10.990;2022-12-18T09:53:55;21.25;;;10.73;;
3329;SDS011;1677;49.576;10.990;2022-12-18T09:56:24;21.65;;;11.55;;
3329;SDS011;1677;49.576;10.990;2022-12-18T09:58:56;24.42;;;11.82;;
3329;SDS011;1677;49.576;10.990;2022-12-18T10:01:25;23.20;;;10.82;;
3329;SDS011;1677;49.576;10.990;2022-12-18T10:03:52;18.30;;;10.10;;
3329;SDS011;1677;49.576;10.990;2022-12-18T10:09:12;21.77;;;11.68;;
3329;SDS011;1677;49.576;10.990;2022-12-18T10:19:59;21.88;;;11.70;;
3329;SDS011;1677;49.576;10.990;2022-12-18T10:22:56;17.98;;;9.27;;
3329;SDS011;1677;49.576;10.990;2022-12-18T10:28:13;22.15;;;10.98;;
3329;SDS011;1677;49.576;10.990;2022-12-18T10:30:42;22.52;;;11.73;;
3329;SDS011;1677;49.576;10.990;2022-12-18T10:33:14;21.02;;;11.55;;
3329;SDS011;1677;49.576;10.990;2022-12-18T10:35:46;18.08;;;9.70;;
3329;SDS011;1677;49.576;10.990;2022-12-18T10:40:48;16.70;;;8.95;;
3329;SDS011;1677;49.576;10.990;2022-12-18T10:43:15;21.17;;;11.48;;
3329;SDS011;1677;49.576;10.990;2022-12-18T10:45:44;18.77;;;11.63;;
3329;SDS011;1677;49.576;10.990;2022-12-18T10:48:24;13.88;;;9.50;;
3329;SDS011;1677;49.576;10.990;2022-12-18T10:50:50;19.23;;;12.13;;
3329;SDS011;1677;49.576;10.990;2022-12-18T10:53:19;17.23;;;10.23;;
3329;SDS011;1677;49.576;10.990;2022-12-18T10:55:56;19.88;;;11.10;;
3329;SDS011;1677;49.576;10.990;2022-12-18T10:58:26;18.70;;;11.40;;
3329;SDS011;1677;49.576;10.990;2022-12-18T11:03:37;15.35;;;10.20;;
3329;SDS011;1677;49.576;10.990;2022-12-18T11:08:37;22.63;;;11.48;;
3329;SDS011;1677;49.576;10.990;2022-12-18T11:11:04;21.00;;;9.75;;
3329;SDS011;1677;49.576;10.990;2022-12-18T11:16:48;14.68;;;8.95;;
3329;SDS011;1677;49.576;10.990;2022-12-18T11:19:33;16.55;;;9.68;;
3329;SDS011;1677;49.576;10.990;2022-12-18T11:22:02;16.88;;;9.38;;
3329;SDS011;1677;49.576;10.990;2022-12-18T11:24:49;19.52;;;9.35;;
3329;SDS011;1677;49.576;10.990;2022-12-18T11:27:21;16.48;;;9.52;;
3329;SDS011;1677;49.576;10.990;2022-12-18T11:29:47;13.03;;;7.50;;
3329;SDS011;1677;49.576;10.990;2022-12-18T11:32:26;18.50;;;9.82;;
3329;SDS011;1677;49.576;10.990;2022-12-18T11:35:10;17.48;;;9.40;;
3329;SDS011;1677;49.576;10.990;2022-12-18T11:37:37;21.88;;;9.68;;
3329;SDS011;1677;49.576;10.990;2022-12-18T11:40:12;22.70;;;12.73;;
3329;SDS011;1677;49.576;10.990;2022-12-18T11:50:30;19.25;;;11.13;;
3329;SDS011;1677;49.576;10.990;2022-12-18T11:53:04;16.92;;;10.73;;
3329;SDS011;1677;49.576;10.990;2022-12-18T12:10:01;17.95;;;11.77;;
3329;SDS011;1677;49.576;10.990;2022-12-18T12:15:34;25.95;;;11.95;;
3329;SDS011;1677;49.576;10.990;2022-12-18T12:18:35;21.10;;;9.90;;
3329;SDS011;1677;49.576;10.990;2022-12-18T12:21:28;21.83;;;10.93;;
3329;SDS011;1677;49.576;10.990;2022-12-18T12:24:12;23.92;;;12.32;;
3329;SDS011;1677;49.576;10.990;2022-12-18T12:27:08;17.50;;;10.05;;
3329;SDS011;1677;49.576;10.990;2022-12-18T12:30:16;20.17;;;12.23;;
3329;SDS011;1677;49.576;10.990;2022-12-18T12:35:41;23.20;;;13.60;;
3329;SDS011;1677;49.576;10.990;2022-12-18T12:38:19;30.75;;;12.70;;
3329;SDS011;1677;49.576;10.990;2022-12-18T12:41:00;24.88;;;11.65;;
3329;SDS011;1677;49.576;10.990;2022-12-18T12:46:05;19.25;;;10.35;;
3329;SDS011;1677;49.576;10.990;2022-12-18T12:48:46;21.48;;;10.80;;
3329;SDS011;1677;49.576;10.990;2022-12-18T12:54:11;18.48;;;11.07;;
3329;SDS011;1677;49.576;10.990;2022-12-18T13:01:59;20.48;;;11.30;;
3329;SDS011;1677;49.576;10.990;2022-12-18T13:04:34;17.13;;;10.95;;
3329;SDS011;1677;49.576;10.990;2022-12-18T13:10:13;25.63;;;10.50;;
3329;SDS011;1677;49.576;10.990;2022-12-18T13:15:40;20.88;;;11.30;;
3329;SDS011;1677;49.576;10.990;2022-12-18T13:23:18;21.90;;;11.00;;
3329;SDS011;1677;49.576;10.990;2022-12-18T13:25:48;17.38;;;10.98;;
3329;SDS011;1677;49.576;10.990;2022-12-18T13:29:00;19.90;;;12.32;;
3329;SDS011;1677;49.576;10.990;2022-12-18T13:31:12;20.90;;;11.07;;
3329;SDS011;1677;49.576;10.990;2022-12-18T13:33:42;19.73;;;11.68;;
3329;SDS011;1677;49.576;10.990;2022-12-18T13:38:47;28.52;;;11.45;;
3329;SDS011;1677;49.576;10.990;2022-12-18T13:41:36;18.75;;;10.32;;
3329;SDS011;1677;49.576;10.990;2022-12-18T13:47:00;21.80;;;12.25;;
3329;SDS011;1677;49.576;10.990;2022-12-18T13:51:54;19.87;;;10.50;;
3329;SDS011;1677;49.576;10.990;2022-12-18T13:54:32;19.55;;;10.80;;
3329;SDS011;1677;49.576;10.990;2022-12-18T13:57:04;16.70;;;10.45;;
3329;SDS011;1677;49.576;10.990;2022-12-18T13:59:38;16.17;;;10.38;;
3329;SDS011;1677;49.576;10.990;2022-12-18T14:02:13;17.75;;;9.70;;
3329;SDS011;1677;49.576;10.990;2022-12-18T14:04:40;16.58;;;10.77;;
3329;SDS011;1677;49.576;10.990;2022-12-18T14:07:12;14.50;;;10.33;;
3329;SDS011;1677;49.576;10.990;2022-12-18T14:09:42;16.70;;;9.63;;
3329;SDS011;1677;49.576;10.990;2022-12-18T14:17:59;15.77;;;9.32;;
3329;SDS011;1677;49.576;10.990;2022-12-18T14:20:28;16.70;;;11.07;;
3329;SDS011;1677;49.576;10.990;2022-12-18T14:22:56;16.98;;;9.63;;
3329;SDS011;1677;49.576;10.990;2022-12-18T14:25:23;18.67;;;10.40;;
3329;SDS011;1677;49.576;10.990;2022-12-18T14:28:01;15.98;;;9.30;;
3329;SDS011;1677;49.576;10.990;2022-12-18T14:30:44;16.65;;;8.52;;
3329;SDS011;1677;49.576;10.990;2022-12-18T14:33:12;19.23;;;10.20;;
3329;SDS011;1677;49.576;10.990;2022-12-18T14:35:43;14.30;;;8.77;;
3329;SDS011;1677;49.576;10.990;2022-12-18T14:40:55;9.63;;;5.70;;
3329;SDS011;1677;49.576;10.990;2022-12-18T14:43:26;15.68;;;10.07;;
3329;SDS011;1677;49.576;10.990;2022-12-18T14:45:55;27.33;;;18.35;;
3329;SDS011;1677;49.576;10.990;2022-12-18T14:48:37;19.33;;;8.75;;
3329;SDS011;1677;49.576;10.990;2022-12-18T14:51:18;15.27;;;8.63;;
3329;SDS011;1677;49.576;10.990;2022-12-18T14:53:46;14.88;;;10.00;;
3329;SDS011;1677;49.576;10.990;2022-12-18T14:58:39;22.60;;;14.40;;
3329;SDS011;1677;49.576;10.990;2022-12-18T15:01:17;24.45;;;12.68;;
3329;SDS011;1677;49.576;10.990;2022-12-18T15:03:47;25.08;;;13.80;;
3329;SDS011;1677;49.576;10.990;2022-12-18T15:06:55;23.13;;;13.87;;
3329;SDS011;1677;49.576;10.990;2022-12-18T15:09:26;17.77;;;11.05;;
3329;SDS011;1677;49.576;10.990;2022-12-18T15:11:55;21.48;;;12.95;;
3329;SDS011;1677;49.576;10.990;2022-12-18T15:16:57;27.02;;;14.18;;
3329;SDS011;1677;49.576;10.990;2022-12-18T15:19:32;19.77;;;11.07;;
3329;SDS011;1677;49.576;10.990;2022-12-18T15:22:00;20.52;;;10.35;;
3329;SDS011;1677;49.576;10.990;2022-12-18T15:24:30;17.77;;;11.67;;
3329;SDS011;1677;49.576;10.990;2022-12-18T15:26:57;16.25;;;9.98;;
3329;SDS011;1677;49.576;10.990;2022-12-18T15:29:23;32.10;;;18.73;;
3329;SDS011;1677;49.576;10.990;2022-12-18T15:32:03;19.00;;;13.98;;
3329;SDS011;1677;49.576;10.990;2022-12-18T15:34:30;17.42;;;11.32;;
3329;SDS011;1677;49.576;10.990;2022-12-18T15:36:56;21.35;;;10.55;;
3329;SDS011;1677;49.576;10.990;2022-12-18T15:39:22;22.03;;;12.00;;
3329;SDS011;1677;49.576;10.990;2022-12-18T15:41:48;17.63;;;12.00;;
3329;SDS011;1677;49.576;10.990;2022-12-18T15:44:32;18.08;;;10.25;;
3329;SDS011;1677;49.576;10.990;2022-12-18T15:46:58;14.05;;;10.60;;
3329;SDS011;1677;49.576;10.990;2022-12-18T15:49:24;22.40;;;12.77;;
3329;SDS011;1677;49.576;10.990;2022-12-18T15:51:51;22.27;;;12.90;;
3329;SDS011;1677;49.576;10.990;2022-12-18T15:54:18;23.63;;;13.70;;
3329;SDS011;1677;49.576;10.990;2022-12-18T15:57:04;19.88;;;12.88;;
3329;SDS011;1677;49.576;10.990;2022-12-18T15:59:56;26.00;;;13.27;;
3329;SDS011;1677;49.576;10.990;2022-12-18T16:02:23;32.53;;;14.55;;
3329;SDS011;1677;49.576;10.990;2022-12-18T16:04:50;23.48;;;14.98;;
3329;SDS011;1677;49.576;10.990;2022-12-18T16:07:16;26.10;;;12.32;;
3329;SDS011;1677;49.576;10.990;2022-12-18T16:09:42;26.25;;;13.80;;
3329;SDS011;1677;49.576;10.990;2022-12-18T16:12:14;23.70;;;10.90;;
3329;SDS011;1677;49.576;10.990;2022-12-18T16:14:41;19.20;;;10.40;;
3329;SDS011;1677;49.576;10.990;2022-12-18T16:17:09;24.80;;;12.90;;
3329;SDS011;1677;49.576;10.990;2022-12-18T16:19:35;19.38;;;11.93;;
3329;SDS011;1677;49.576;10.990;2022-12-18T16:22:01;25.40;;;12.00;;
3329;SDS011;1677;49.576;10.990;2022-12-18T16:24:30;19.85;;;12.40;;
3329;SDS011;1677;49.576;10.990;2022-12-18T16:26:58;25.70;;;13.73;;
3329;SDS011;1677;49.576;10.990;2022-12-18T16:29:25;23.88;;;16.35;;
3329;SDS011;1677;49.576;10.990;2022-12-18T16:31:56;17.42;;;12.23;;
3329;SDS011;1677;49.576;10.990;2022-12-18T16:34:24;21.48;;;12.68;;
3329;SDS011;1677;49.576;10.990;2022-12-18T16:36:54;16.90;;;11.95;;
3329;SDS011;1677;49.576;10.990;2022-12-18T16:39:24;19.20;;;11.23;;
3329;SDS011;1677;49.576;10.990;2022-12-18T16:41:50;25.58;;;13.45;;
3329;SDS011;1677;49.576;10.990;2022-12-18T16:44:16;18.17;;;10.70;;
3329;SDS011;1677;49.576;10.990;2022-12-18T16:46:42;18.80;;;11.90;;
3329;SDS011;1677;49.576;10.990;2022-12-18T16:49:10;21.05;;;11.98;;
3329;SDS011;1677;49.576;10.990;2022-12-18T16:51:36;29.45;;;12.70;;
3329;SDS011;1677;49.576;10.990;2022-12-18T16:54:02;18.97;;;11.47;;